createdAt,value
2018-12-25T00:01:06.565Z,4.87
2018-12-25T00:03:34.985Z,5.13
2018-12-25T00:06:03.411Z,4.27
2018-12-25T00:08:31.857Z,6.47
2018-12-25T00:11:00.338Z,4.90
2018-12-25T00:13:30.725Z,5.17
2018-12-25T00:15:59.242Z,5.67
2018-12-25T00:18:27.634Z,4.77
2018-12-25T00:20:56.076Z,4.77
2018-12-25T00:23:24.490Z,4.90
2018-12-25T00:25:52.930Z,5.03
2018-12-25T00:28:21.352Z,4.60
2018-12-25T00:30:50.775Z,16.43
2018-12-25T00:33:19.241Z,4.83
2018-12-25T00:35:47.667Z,6.20
2018-12-25T00:38:17.767Z,4.80
2018-12-25T00:40:46.189Z,4.40
2018-12-25T00:43:14.618Z,4.50
2018-12-25T00:45:43.069Z,3.90
2018-12-25T00:48:11.500Z,3.50
2018-12-25T00:50:39.929Z,3.93
2018-12-25T00:53:08.399Z,3.53
2018-12-25T00:55:36.801Z,3.40
2018-12-25T00:58:07.201Z,3.37
2018-12-25T01:00:35.634Z,4.33
2018-12-25T01:03:04.096Z,4.70
2018-12-25T01:05:32.513Z,3.90
2018-12-25T01:08:01.202Z,3.93
2018-12-25T01:10:29.609Z,4.80
2018-12-25T01:12:58.073Z,5.20
2018-12-25T01:15:26.520Z,4.07
2018-12-25T01:17:54.964Z,5.53
2018-12-25T01:20:23.387Z,4.43
2018-12-25T01:22:51.859Z,5.50
2018-12-25T01:25:20.279Z,4.70
2018-12-25T01:27:48.719Z,3.53
2018-12-25T01:30:17.171Z,3.90
2018-12-25T01:32:45.618Z,4.00
2018-12-25T01:35:14.027Z,3.50
2018-12-25T01:37:42.635Z,3.80
2018-12-25T01:40:11.079Z,3.43
2018-12-25T01:42:39.523Z,4.30
2018-12-25T01:45:08.144Z,3.63
2018-12-25T01:47:36.588Z,4.17
2018-12-25T01:50:05.251Z,4.33
2018-12-25T01:52:33.925Z,4.30
2018-12-25T01:55:02.419Z,4.70
2018-12-25T01:57:30.852Z,5.27
2018-12-25T01:59:59.266Z,4.80
2018-12-25T02:02:27.708Z,4.17
2018-12-25T02:04:56.134Z,5.17
2018-12-25T02:07:24.853Z,5.23
2018-12-25T02:09:53.343Z,4.93
2018-12-25T02:12:21.726Z,4.60
2018-12-25T02:14:50.212Z,5.13
2018-12-25T02:17:18.659Z,4.63
2018-12-25T02:19:47.084Z,4.80
2018-12-25T02:22:16.526Z,4.47
2018-12-25T02:24:44.974Z,4.63
2018-12-25T02:27:13.458Z,5.03
2018-12-25T02:29:41.931Z,4.73
2018-12-25T02:32:10.340Z,5.60
2018-12-25T02:34:38.784Z,6.73
2018-12-25T02:37:07.445Z,7.83
2018-12-25T02:39:35.854Z,5.20
2018-12-25T02:42:04.309Z,5.47
2018-12-25T02:44:32.759Z,4.70
2018-12-25T02:47:01.179Z,5.17
2018-12-25T02:49:29.601Z,5.60
2018-12-25T02:51:58.104Z,5.27
2018-12-25T02:54:26.834Z,5.97
2018-12-25T02:56:55.342Z,5.40
2018-12-25T02:59:23.818Z,4.97
2018-12-25T03:01:52.230Z,5.73
2018-12-25T03:04:20.707Z,5.07
2018-12-25T03:06:49.193Z,6.83
2018-12-25T03:09:17.625Z,5.60
2018-12-25T03:11:46.043Z,6.03
2018-12-25T03:14:14.512Z,7.27
2018-12-25T03:16:42.943Z,6.53
2018-12-25T03:19:11.321Z,6.47
2018-12-25T03:21:39.860Z,6.83
2018-12-25T03:24:08.255Z,6.47
2018-12-25T03:26:36.668Z,6.23
2018-12-25T03:29:05.342Z,6.03
2018-12-25T03:31:33.780Z,7.00
2018-12-25T03:34:02.303Z,5.93
2018-12-25T03:36:30.834Z,7.33
2018-12-25T03:38:59.250Z,5.80
2018-12-25T03:41:27.669Z,5.77
2018-12-25T03:43:56.126Z,6.10
2018-12-25T03:46:24.575Z,7.23
2018-12-25T03:48:53.084Z,5.87
2018-12-25T03:51:21.553Z,6.30
2018-12-25T03:53:49.975Z,6.27
2018-12-25T03:56:18.411Z,6.40
2018-12-25T03:58:46.888Z,6.67
2018-12-25T04:01:16.314Z,6.87
2018-12-25T04:03:44.763Z,6.20
2018-12-25T04:06:13.243Z,6.93
2018-12-25T04:08:41.622Z,7.10
2018-12-25T04:11:10.101Z,8.07
2018-12-25T04:13:38.541Z,6.87
2018-12-25T04:16:06.954Z,8.20
2018-12-25T04:18:35.382Z,6.37
2018-12-25T04:21:03.932Z,6.70
2018-12-25T04:23:32.321Z,8.00
2018-12-25T04:26:00.734Z,7.27
2018-12-25T04:28:29.246Z,7.23
2018-12-25T04:30:57.673Z,7.83
2018-12-25T04:33:26.114Z,6.83
2018-12-25T04:35:54.626Z,6.97
2018-12-25T04:38:23.040Z,5.60
2018-12-25T04:40:51.461Z,11.37
2018-12-25T04:43:19.910Z,10.73
2018-12-25T04:45:48.362Z,6.63
2018-12-25T04:48:16.793Z,6.33
2018-12-25T04:50:45.273Z,6.40
2018-12-25T04:53:13.673Z,6.97
2018-12-25T04:55:43.094Z,7.60
2018-12-25T04:58:11.557Z,6.47
2018-12-25T05:00:39.974Z,6.50
2018-12-25T05:03:08.389Z,6.30
2018-12-25T05:05:36.852Z,6.73
2018-12-25T05:08:05.273Z,6.60
2018-12-25T05:10:33.723Z,7.60
2018-12-25T05:13:02.374Z,6.83
2018-12-25T05:15:30.766Z,6.80
2018-12-25T05:17:59.191Z,8.13
2018-12-25T05:20:27.697Z,6.80
2018-12-25T05:22:56.121Z,5.90
2018-12-25T05:25:24.557Z,5.47
2018-12-25T05:27:52.982Z,5.27
2018-12-25T05:30:21.510Z,5.07
2018-12-25T05:32:49.918Z,5.60
2018-12-25T05:35:18.372Z,8.93
2018-12-25T05:37:46.777Z,5.80
2018-12-25T05:40:15.189Z,6.33
2018-12-25T05:42:43.820Z,7.30
2018-12-25T05:45:13.208Z,5.57
2018-12-25T05:47:41.667Z,4.97
2018-12-25T05:50:10.124Z,6.03
2018-12-25T05:52:38.568Z,5.23
2018-12-25T05:55:06.973Z,5.20
2018-12-25T05:57:35.440Z,5.93
2018-12-25T06:00:04.335Z,4.23
2018-12-25T06:02:32.754Z,4.90
2018-12-25T06:05:01.217Z,4.30
2018-12-25T06:07:29.603Z,4.70
2018-12-25T06:09:58.042Z,6.40
2018-12-25T06:12:26.699Z,3.73
2018-12-25T06:14:55.084Z,6.47
2018-12-25T06:17:23.545Z,5.50
2018-12-25T06:19:52.024Z,6.63
2018-12-25T06:22:20.467Z,7.67
2018-12-25T06:24:48.902Z,9.13
2018-12-25T06:27:17.378Z,5.87
2018-12-25T06:29:45.825Z,5.73
2018-12-25T06:32:14.206Z,5.30
2018-12-25T06:34:42.704Z,4.63
2018-12-25T06:37:11.105Z,6.93
2018-12-25T06:39:39.517Z,5.67
2018-12-25T06:42:07.977Z,6.63
2018-12-25T06:44:36.372Z,6.30
2018-12-25T06:47:04.798Z,7.30
2018-12-25T06:49:33.273Z,9.53
2018-12-25T06:52:01.722Z,6.00
2018-12-25T06:54:30.109Z,6.13
2018-12-25T06:56:58.558Z,7.73
2018-12-25T06:59:26.952Z,7.20
2018-12-25T07:01:55.374Z,7.47
2018-12-25T07:04:23.848Z,8.50
2018-12-25T07:06:52.285Z,6.83
2018-12-25T07:09:20.782Z,6.53
2018-12-25T07:11:49.214Z,7.27
2018-12-25T07:14:17.643Z,6.93
2018-12-25T07:16:46.091Z,6.60
2018-12-25T07:19:15.549Z,8.90
2018-12-25T07:21:44.984Z,6.80
2018-12-25T07:24:13.361Z,5.57
2018-12-25T07:26:41.822Z,6.63
2018-12-25T07:29:11.186Z,6.90
2018-12-25T07:31:39.618Z,7.70
2018-12-25T07:34:08.037Z,7.97
2018-12-25T07:36:36.496Z,7.50
2018-12-25T07:39:06.187Z,7.77
2018-12-25T07:41:34.605Z,7.00
2018-12-25T07:44:03.025Z,7.20
2018-12-25T07:46:31.430Z,7.60
2018-12-25T07:48:59.874Z,5.60
2018-12-25T07:51:28.336Z,9.47
2018-12-25T07:53:56.740Z,7.53
2018-12-25T07:56:25.189Z,8.03
2018-12-25T07:58:53.622Z,5.67
2018-12-25T08:01:22.122Z,8.17
2018-12-25T08:03:50.582Z,6.73
2018-12-25T08:06:19.035Z,6.30
2018-12-25T08:08:47.451Z,6.33
2018-12-25T08:11:15.934Z,9.67
2018-12-25T08:13:44.341Z,8.60
2018-12-25T08:16:12.737Z,7.13
2018-12-25T08:18:41.213Z,8.10
2018-12-25T08:21:09.638Z,8.43
2018-12-25T08:23:38.050Z,6.40
2018-12-25T08:26:06.508Z,6.37
2018-12-25T08:28:34.883Z,6.77
2018-12-25T08:31:03.325Z,8.13
2018-12-25T08:33:33.769Z,6.03
2018-12-25T08:36:02.243Z,6.93
2018-12-25T08:38:30.725Z,9.97
2018-12-25T08:40:59.288Z,7.57
2018-12-25T08:43:27.785Z,8.93
2018-12-25T08:45:56.283Z,7.47
2018-12-25T08:48:24.725Z,7.87
2018-12-25T08:50:53.164Z,6.00
2018-12-25T08:53:21.577Z,8.17
2018-12-25T08:55:50.146Z,7.23
2018-12-25T08:58:18.538Z,12.00
2018-12-25T09:00:47.011Z,14.73
2018-12-25T09:03:15.483Z,13.60
2018-12-25T09:05:43.947Z,9.83
2018-12-25T09:08:12.489Z,10.60
2018-12-25T09:10:46.641Z,5.40
2018-12-25T09:13:15.079Z,6.07
2018-12-25T09:15:43.501Z,6.27
2018-12-25T09:18:12.054Z,8.27
2018-12-25T09:20:40.498Z,10.67
2018-12-25T09:23:08.987Z,7.10
2018-12-25T09:25:37.481Z,5.57
2018-12-25T09:28:07.971Z,5.33
2018-12-25T09:30:36.438Z,5.90
2018-12-25T09:33:04.885Z,6.07
2018-12-25T09:35:33.346Z,5.53
2018-12-25T09:38:01.728Z,4.70
2018-12-25T09:40:30.299Z,5.50
2018-12-25T09:42:58.871Z,5.77
2018-12-25T09:45:29.281Z,5.03
2018-12-25T09:47:57.758Z,20.17
2018-12-25T09:50:26.182Z,4.47
2018-12-25T09:52:56.663Z,5.50
2018-12-25T09:55:28.659Z,3.83
2018-12-25T09:57:57.098Z,5.43
2018-12-25T10:00:25.595Z,4.93
2018-12-25T10:02:54.043Z,6.33
2018-12-25T10:05:29.187Z,4.80
2018-12-25T10:07:57.710Z,4.60
2018-12-25T10:10:26.145Z,5.47
2018-12-25T10:12:54.563Z,6.40
2018-12-25T10:15:23.117Z,4.70
2018-12-25T10:17:51.618Z,5.73
2018-12-25T10:20:20.017Z,6.43
2018-12-25T10:22:48.544Z,5.97
2018-12-25T10:25:17.080Z,5.40
2018-12-25T10:27:45.493Z,8.43
2018-12-25T10:30:13.933Z,7.00
2018-12-25T10:32:42.386Z,4.60
2018-12-25T10:35:13.733Z,4.77
2018-12-25T10:37:42.264Z,6.37
2018-12-25T10:40:11.668Z,5.47
2018-12-25T10:42:46.194Z,14.27
2018-12-25T10:45:14.654Z,3.30
2018-12-25T10:47:43.096Z,3.50
2018-12-25T10:50:11.541Z,6.30
2018-12-25T10:52:40.001Z,3.07
2018-12-25T10:55:08.416Z,9.60
2018-12-25T10:57:36.955Z,7.27
2018-12-25T11:00:11.322Z,5.37
2018-12-25T11:02:39.774Z,12.90
2018-12-25T11:05:08.227Z,8.80
2018-12-25T11:07:36.763Z,6.93
2018-12-25T11:10:07.287Z,4.30
2018-12-25T11:12:35.699Z,9.10
2018-12-25T11:15:04.522Z,4.77
2018-12-25T11:17:32.905Z,8.13
2018-12-25T11:20:01.409Z,8.90
2018-12-25T11:22:29.852Z,6.80
2018-12-25T11:24:58.298Z,5.07
2018-12-25T11:27:26.686Z,5.00
2018-12-25T11:29:55.133Z,3.97
2018-12-25T11:32:23.551Z,4.10
2018-12-25T11:34:51.993Z,4.50
2018-12-25T11:37:20.430Z,4.73
2018-12-25T11:39:49.766Z,7.07
2018-12-25T11:42:18.153Z,4.93
2018-12-25T11:44:46.577Z,4.50
2018-12-25T11:47:14.970Z,5.83
2018-12-25T11:49:43.405Z,8.10
2018-12-25T11:52:11.847Z,4.27
2018-12-25T11:54:40.288Z,5.50
2018-12-25T11:57:08.693Z,3.83
2018-12-25T11:59:37.159Z,5.23
2018-12-25T12:02:05.617Z,4.67
2018-12-25T12:04:34.131Z,4.37
2018-12-25T12:07:02.553Z,4.43
2018-12-25T12:09:30.998Z,4.40
2018-12-25T12:11:59.410Z,5.33
2018-12-25T12:14:27.817Z,4.73
2018-12-25T12:16:56.285Z,5.73
2018-12-25T12:19:24.732Z,5.97
2018-12-25T12:21:53.246Z,6.23
2018-12-25T12:24:21.633Z,6.27
2018-12-25T12:26:50.031Z,7.13
2018-12-25T12:29:18.506Z,5.87
2018-12-25T12:31:46.945Z,6.47
2018-12-25T12:34:15.333Z,6.03
2018-12-25T12:36:43.878Z,6.53
2018-12-25T12:39:12.334Z,13.20
2018-12-25T12:41:40.798Z,6.13
2018-12-25T12:44:09.276Z,6.80
2018-12-25T12:46:37.701Z,6.10
2018-12-25T12:49:06.281Z,5.87
2018-12-25T12:51:34.744Z,8.60
2018-12-25T12:54:03.178Z,6.30
2018-12-25T12:56:31.557Z,6.53
2018-12-25T12:58:59.988Z,6.27
2018-12-25T13:01:28.427Z,7.43
2018-12-25T13:03:56.824Z,6.20
2018-12-25T13:06:25.257Z,13.87
2018-12-25T13:08:53.714Z,14.67
2018-12-25T13:11:22.182Z,8.63
2018-12-25T13:13:50.637Z,6.80
2018-12-25T13:16:19.073Z,6.17
2018-12-25T13:18:47.502Z,7.93
2018-12-25T13:21:15.953Z,6.83
2018-12-25T13:23:44.333Z,7.57
2018-12-25T13:26:12.745Z,7.37
2018-12-25T13:28:41.291Z,8.83
2018-12-25T13:31:09.680Z,6.60
2018-12-25T13:33:38.086Z,7.43
2018-12-25T13:36:07.129Z,12.97
2018-12-25T13:38:35.502Z,7.03
2018-12-25T13:41:03.996Z,8.80
2018-12-25T13:43:32.464Z,9.10
2018-12-25T13:46:00.941Z,11.37
2018-12-25T13:48:29.360Z,11.50
2018-12-25T13:50:57.829Z,10.27
2018-12-25T13:53:26.228Z,7.57
2018-12-25T13:55:54.633Z,6.17
2018-12-25T13:58:23.138Z,7.53
2018-12-25T14:00:51.545Z,7.60
2018-12-25T14:03:20.014Z,8.50
2018-12-25T14:05:48.509Z,6.70
2018-12-25T14:08:16.911Z,7.30
2018-12-25T14:10:45.411Z,8.60
2018-12-25T14:13:14.098Z,7.23
2018-12-25T14:15:44.203Z,6.73
2018-12-25T14:18:12.700Z,10.00
2018-12-25T14:20:41.129Z,6.53
2018-12-25T14:23:11.313Z,7.83
2018-12-25T14:25:39.666Z,6.53
2018-12-25T14:28:08.191Z,8.17
2018-12-25T14:30:36.627Z,12.63
2018-12-25T14:33:05.071Z,9.67
2018-12-25T14:35:33.477Z,7.10
2018-12-25T14:38:01.886Z,8.17
2018-12-25T14:40:30.302Z,9.13
2018-12-25T14:42:58.738Z,8.97
2018-12-25T14:45:27.125Z,8.90
2018-12-25T14:47:55.563Z,9.10
2018-12-25T14:50:23.982Z,7.13
2018-12-25T14:52:52.501Z,6.70
2018-12-25T14:55:20.919Z,7.93
2018-12-25T14:57:49.562Z,7.37
2018-12-25T15:00:17.974Z,8.50
2018-12-25T15:02:46.423Z,7.97
2018-12-25T15:05:14.858Z,8.83
2018-12-25T15:07:43.469Z,8.07
2018-12-25T15:10:11.868Z,10.10
2018-12-25T15:12:40.697Z,7.37
2018-12-25T15:15:09.110Z,9.10
2018-12-25T15:17:37.582Z,11.03
2018-12-25T15:20:06.674Z,13.60
2018-12-25T15:22:35.150Z,12.27
2018-12-25T15:25:03.545Z,12.07
2018-12-25T15:27:32.041Z,12.00
2018-12-25T15:30:00.625Z,9.30
2018-12-25T15:32:29.132Z,12.53
2018-12-25T15:34:57.577Z,11.43
2018-12-25T15:37:25.973Z,15.20
2018-12-25T15:39:54.381Z,14.07
2018-12-25T15:42:22.810Z,12.10
2018-12-25T15:44:51.251Z,12.73
2018-12-25T15:47:19.808Z,10.00
2018-12-25T15:49:48.238Z,11.60
2018-12-25T15:52:16.690Z,10.67
2018-12-25T15:54:45.166Z,9.83
2018-12-25T15:57:13.601Z,12.17
2018-12-25T15:59:42.109Z,9.87
2018-12-25T16:02:10.598Z,11.07
2018-12-25T16:04:39.259Z,10.57
2018-12-25T16:07:07.792Z,8.87
2018-12-25T16:09:36.279Z,9.53
2018-12-25T16:12:04.794Z,11.20
2018-12-25T16:14:33.333Z,12.77
2018-12-25T16:17:01.823Z,10.13
2018-12-25T16:19:30.687Z,12.83
2018-12-25T16:21:59.169Z,11.87
2018-12-25T16:24:27.820Z,14.03
2018-12-25T16:26:56.305Z,13.37
2018-12-25T16:29:24.869Z,12.27
2018-12-25T16:31:53.396Z,11.00
2018-12-25T16:34:21.905Z,14.33
2018-12-25T16:36:50.471Z,13.53
2018-12-25T16:39:19.221Z,10.83
2018-12-25T16:41:47.907Z,10.10
2018-12-25T16:44:16.541Z,12.17
2018-12-25T16:46:45.021Z,9.87
2018-12-25T16:49:13.604Z,11.10
2018-12-25T16:51:43.095Z,11.13
2018-12-25T16:54:11.599Z,10.80
2018-12-25T16:56:40.050Z,13.40
2018-12-25T16:59:08.530Z,11.53
2018-12-25T17:01:36.970Z,11.50
2018-12-25T17:04:05.417Z,9.10
2018-12-25T17:06:33.842Z,10.47
2018-12-25T17:09:02.432Z,9.17
2018-12-25T17:11:30.953Z,15.30
2018-12-25T17:13:59.406Z,10.87
2018-12-25T17:16:27.903Z,11.07
2018-12-25T17:18:56.387Z,13.43
2018-12-25T17:21:24.804Z,10.73
2018-12-25T17:23:53.221Z,12.17
2018-12-25T17:26:21.653Z,16.43
2018-12-25T17:28:50.091Z,11.13
2018-12-25T17:31:18.524Z,12.43
2018-12-25T17:33:46.967Z,11.47
2018-12-25T17:36:15.382Z,9.50
2018-12-25T17:38:43.821Z,11.77
2018-12-25T17:41:12.318Z,15.03
2018-12-25T17:43:40.701Z,11.10
2018-12-25T17:46:09.162Z,14.47
2018-12-25T17:48:37.825Z,11.53
2018-12-25T17:51:06.275Z,14.20
2018-12-25T17:53:34.697Z,12.23
2018-12-25T17:56:03.142Z,12.13
2018-12-25T17:58:31.599Z,20.47
2018-12-25T18:00:59.987Z,20.80
2018-12-25T18:03:28.458Z,18.57
2018-12-25T18:05:56.898Z,14.90
2018-12-25T18:08:25.349Z,20.20
2018-12-25T18:10:53.815Z,15.00
2018-12-25T18:13:22.310Z,14.37
2018-12-25T18:15:50.731Z,14.23
2018-12-25T18:18:19.199Z,16.10
2018-12-25T18:20:47.668Z,11.47
2018-12-25T18:23:16.170Z,11.17
2018-12-25T18:25:44.597Z,10.43
2018-12-25T18:28:13.019Z,10.80
2018-12-25T18:30:41.409Z,11.47
2018-12-25T18:33:09.877Z,11.63
2018-12-25T18:35:38.321Z,11.73
2018-12-25T18:38:06.734Z,11.73
2018-12-25T18:40:35.217Z,10.87
2018-12-25T18:43:03.682Z,11.90
2018-12-25T18:45:32.073Z,10.50
2018-12-25T18:48:00.551Z,11.77
2018-12-25T18:50:28.993Z,11.27
2018-12-25T18:52:57.482Z,16.67
2018-12-25T18:55:25.921Z,15.83
2018-12-25T18:57:54.542Z,12.67
2018-12-25T19:00:22.960Z,11.63
2018-12-25T19:02:51.447Z,14.50
2018-12-25T19:05:20.023Z,13.40
2018-12-25T19:07:48.525Z,13.00
2018-12-25T19:10:18.034Z,13.30
2018-12-25T19:12:46.472Z,11.63
2018-12-25T19:15:22.374Z,11.03
2018-12-25T19:17:52.330Z,11.37
2018-12-25T19:20:20.891Z,11.43
2018-12-25T19:22:49.313Z,12.43
2018-12-25T19:25:17.762Z,14.30
2018-12-25T19:27:46.210Z,15.47
2018-12-25T19:30:17.870Z,14.50
2018-12-25T19:32:46.310Z,12.13
2018-12-25T19:35:14.701Z,14.77
2018-12-25T19:37:43.221Z,15.00
2018-12-25T19:40:11.674Z,13.97
2018-12-25T19:42:40.082Z,16.03
2018-12-25T19:45:08.538Z,12.27
2018-12-25T19:47:37.043Z,17.93
2018-12-25T19:50:06.116Z,12.17
2018-12-25T19:52:34.563Z,13.70
2018-12-25T19:55:02.976Z,10.80
2018-12-25T19:57:31.441Z,11.33
2018-12-25T19:59:59.837Z,11.77
2018-12-25T20:02:28.448Z,12.17
2018-12-25T20:05:16.259Z,12.93
2018-12-25T20:08:06.169Z,11.17
2018-12-25T20:10:55.323Z,11.87
2018-12-25T20:13:38.534Z,10.67
2018-12-25T20:16:24.687Z,11.00
2018-12-25T20:18:56.186Z,13.10
2018-12-25T20:21:27.741Z,11.57
2018-12-25T20:24:08.116Z,11.30
2018-12-25T20:26:51.447Z,12.10
2018-12-25T20:29:31.978Z,9.70
2018-12-25T20:32:25.593Z,12.27
2018-12-25T20:35:21.243Z,12.50
2018-12-25T20:37:58.391Z,11.73
2018-12-25T20:41:02.654Z,12.43
2018-12-25T20:44:02.401Z,11.30
2018-12-25T20:46:48.818Z,13.07
2018-12-25T20:49:39.650Z,7.80
2018-12-25T20:52:29.197Z,9.13
2018-12-25T20:55:22.713Z,9.47
2018-12-25T20:58:00.082Z,9.03
2018-12-25T21:00:43.546Z,11.00
2018-12-25T21:03:31.268Z,9.67
2018-12-25T21:06:23.437Z,7.93
2018-12-25T21:09:00.692Z,8.80
2018-12-25T21:11:48.380Z,9.07
2018-12-25T21:14:39.094Z,10.83
2018-12-25T21:17:19.414Z,9.60
2018-12-25T21:20:19.325Z,9.77
2018-12-25T21:23:23.636Z,10.33
2018-12-25T21:26:28.223Z,9.83
2018-12-25T21:28:56.787Z,10.40
2018-12-25T21:31:25.526Z,10.27
2018-12-25T21:33:54.009Z,10.83
2018-12-25T21:36:22.692Z,11.87
2018-12-25T21:38:51.129Z,13.20
2018-12-25T21:41:20.756Z,10.93
2018-12-25T21:43:49.238Z,10.53
2018-12-25T21:46:17.811Z,10.43
2018-12-25T21:48:46.378Z,11.20
2018-12-25T21:51:14.853Z,10.33
2018-12-25T21:53:43.336Z,11.77
2018-12-25T21:56:12.194Z,10.80
2018-12-25T21:58:40.609Z,10.93
2018-12-25T22:01:09.065Z,10.30
2018-12-25T22:03:37.601Z,10.77
2018-12-25T22:06:06.044Z,10.10
2018-12-25T22:08:34.467Z,11.50
2018-12-25T22:11:02.917Z,11.13
2018-12-25T22:13:31.331Z,10.63
2018-12-25T22:15:59.742Z,10.60
2018-12-25T22:18:28.294Z,10.03
2018-12-25T22:20:57.020Z,10.70
2018-12-25T22:23:25.524Z,10.17
2018-12-25T22:25:54.095Z,9.53
2018-12-25T22:28:22.592Z,11.87
2018-12-25T22:30:51.059Z,9.67
2018-12-25T22:33:19.538Z,9.93
2018-12-25T22:35:48.065Z,8.77
2018-12-25T22:38:16.481Z,12.17
2018-12-25T22:40:44.963Z,10.43
2018-12-25T22:43:13.475Z,10.20
2018-12-25T22:45:41.918Z,14.80
2018-12-25T22:48:10.417Z,10.57
2018-12-25T22:50:38.908Z,9.77
2018-12-25T22:53:07.414Z,12.13
2018-12-25T22:55:36.181Z,10.83
2018-12-25T22:58:04.663Z,12.17
2018-12-25T23:00:33.486Z,10.40
2018-12-25T23:03:02.030Z,11.83
2018-12-25T23:05:30.539Z,13.87
2018-12-25T23:07:58.945Z,10.83
2018-12-25T23:10:27.384Z,12.53
2018-12-25T23:12:55.841Z,15.27
2018-12-25T23:15:24.373Z,13.23
2018-12-25T23:17:53.083Z,16.47
2018-12-25T23:20:28.640Z,14.77
2018-12-25T23:22:51.658Z,13.53
2018-12-25T23:25:20.206Z,13.87
2018-12-25T23:27:48.640Z,14.17
2018-12-25T23:30:17.098Z,13.80
2018-12-25T23:32:45.571Z,13.80
2018-12-25T23:35:14.002Z,12.90
2018-12-25T23:37:42.417Z,14.77
2018-12-25T23:40:10.968Z,17.67
2018-12-25T23:42:39.445Z,12.73
2018-12-25T23:45:07.970Z,14.93
2018-12-25T23:47:36.495Z,15.30
2018-12-25T23:50:05.766Z,12.03
2018-12-25T23:52:34.161Z,13.70
2018-12-25T23:55:02.663Z,11.20
2018-12-25T23:57:31.093Z,15.10
2018-12-25T23:59:59.594Z,16.03
